Rechercher aéroport 
image banner adimage banner ad
image banner ad

LI-CA06 - La Tana del volo

Situé à Siliqua, Italy

ICAO - , IATA -

Données fournies par Airmate  

Information générale

Coordonnées: N39°16'9" E8°46'18"
Élévation : 272 feet MSL.
 
Évalué:
Voir évaluations:
[VIEW]
Voir autres Aéroports à Sardinia

Données opérationnelles

Accessible au public
Heure actuelle UTC:
Heure actuelle locale:
Météo à : LIED - Decimomannu ( 20 km )
METAR: LIED 261155Z 30028KT 9999 SCT025 20/09 Q1008 RMK SCT VIS MIN 9999 WIND THR35 30026KT WIND THR17 30027KT BLU
TAF: TAF LIED 261100Z 2612/2621 32020G30KT 9999 FEW020 SCT030 TEMPO 2612/2614 32025G40KT
Voir NOTAMs / SUP AIP / TFR affectant cet aéroport [VIEW]
Fréquences de communication: [VIEW]

Pistes:

Identifiant RWYQFULongueur (ft)Largeur (ft)SurfaceLDA (ft)
09170665GRASS
27170665GRASS

Coordonnées de l'aéroport

Adresse: Siliqua Italy

Autres services d'aviation

Clubs d'aviation (sans but lucratif)

La Tana Del Volo

La Tana Del Volo
latanadelvolo@libero.it+390781781000
+39337819036
Évalué:
Voir évaluations:
[VIEW]

Vue satellite de LI-CA06